Time;durP1;ratioP1;P1;durP2;ratioP2;P2;SDS_P1;SDS_P2;PMS_P1;PMS_P2;Temp;Humidity;BMP_temperature;BMP_pressure;BME280_temperature;BME280_humidity;BME280_pressure;Samples;Min_cycle;Max_cycle;Signal;HPM_P1;HPM_P2
2023/01/07 00:00:07;;;;;;;2.25;2.08;;;13.80;73.50;;;;;;5045884;28;20040;-49
2023/01/07 00:02:37;;;;;;;1.70;1.60;;;13.70;73.50;;;;;;5044739;28;20072;-49
2023/01/07 00:05:04;;;;;;;5.25;2.58;;;13.70;73.50;;;;;;5042030;28;20531;-48
2023/01/07 00:07:31;;;;;;;1.65;1.52;;;13.70;73.60;;;;;;5036088;28;20039;-48
2023/01/07 00:10:03;;;;;;;1.55;1.45;;;13.70;73.60;;;;;;5049193;28;20052;-49
2023/01/07 00:12:34;;;;;;;2.75;1.95;;;13.60;73.70;;;;;;5050201;28;20048;-50
2023/01/07 00:15:04;;;;;;;2.47;1.55;;;13.60;73.70;;;;;;5029812;28;20060;-49
2023/01/07 00:17:32;;;;;;;3.15;1.90;;;13.50;73.70;;;;;;5031664;28;20119;-47
2023/01/07 00:19:59;;;;;;;1.95;1.85;;;13.50;73.80;;;;;;5046819;28;20045;-50
2023/01/07 00:22:26;;;;;;;2.38;1.90;;;13.50;73.80;;;;;;5050020;28;20036;-50
2023/01/07 00:24:55;;;;;;;1.80;1.67;;;13.50;73.90;;;;;;5035352;28;20036;-48
2023/01/07 00:27:24;;;;;;;1.60;1.50;;;13.40;73.90;;;;;;5043272;28;20405;-49
2023/01/07 00:29:51;;;;;;;2.90;1.75;;;13.50;74.00;;;;;;5047307;28;20037;-49
2023/01/07 00:32:18;;;;;;;1.50;1.40;;;13.40;74.00;;;;;;5018079;28;20050;-48
2023/01/07 00:34:47;;;;;;;2.30;2.10;;;13.40;74.00;;;;;;5024265;28;20045;-47
2023/01/07 00:37:48;;;;;;;1.88;1.70;;;13.40;74.10;;;;;;5015851;28;20052;-48
2023/01/07 00:40:06;;;;;;;1.58;1.48;;;13.40;74.20;;;;;;5048531;28;20041;-49
2023/01/07 00:45:18;;;;;;;1.92;1.35;;;13.40;74.30;;;;;;5008917;28;20594;-50
2023/01/07 00:47:45;;;;;;;2.40;2.05;;;13.40;74.40;;;;;;5034396;28;20041;-47
2023/01/07 00:50:12;;;;;;;2.10;1.55;;;13.40;74.50;;;;;;5030527;28;20034;-47
2023/01/07 00:52:39;;;;;;;1.90;1.40;;;13.40;74.60;;;;;;5003071;28;20076;-49
2023/01/07 00:55:09;;;;;;;2.03;1.80;;;13.40;74.80;;;;;;5015525;28;20053;-50
2023/01/07 00:57:42;;;;;;;1.85;1.52;;;13.40;74.80;;;;;;5049177;28;20530;-48
2023/01/07 01:00:12;;;;;;;1.88;1.60;;;13.50;74.90;;;;;;5030432;28;20060;-49
2023/01/07 01:02:39;;;;;;;1.65;1.55;;;13.50;74.80;;;;;;5016099;28;20141;-48
2023/01/07 01:05:09;;;;;;;2.88;1.70;;;13.50;74.70;;;;;;5039721;28;20041;-49
2023/01/07 01:07:39;;;;;;;1.70;1.60;;;13.50;74.70;;;;;;5023927;28;20103;-48
2023/01/07 01:10:17;;;;;;;1.38;1.38;;;13.60;74.70;;;;;;5034463;28;20125;-47
2023/01/07 01:12:50;;;;;;;3.05;1.60;;;13.60;74.60;;;;;;5016598;28;20508;-48
2023/01/07 01:15:17;;;;;;;3.80;1.90;;;13.60;74.50;;;;;;5022069;28;20045;-50
2023/01/07 01:17:43;;;;;;;1.88;1.73;;;13.70;74.50;;;;;;5029707;28;20045;-49
2023/01/07 01:20:14;;;;;;;1.75;1.50;;;13.70;74.50;;;;;;5048244;28;20045;-49
2023/01/07 01:22:42;;;;;;;2.38;2.00;;;13.70;74.50;;;;;;5008508;28;20117;-49
2023/01/07 01:25:13;;;;;;;1.83;1.55;;;13.70;74.40;;;;;;5028559;28;20046;-49
2023/01/07 01:27:41;;;;;;;2.53;1.58;;;13.80;74.40;;;;;;5048614;28;20045;-48
2023/01/07 01:30:09;;;;;;;1.67;1.58;;;13.80;74.30;;;;;;5025787;28;20059;-48
2023/01/07 01:32:38;;;;;;;2.45;2.10;;;13.80;74.30;;;;;;5012207;28;20079;-51
2023/01/07 01:35:08;;;;;;;2.40;1.67;;;13.80;74.20;;;;;;5028266;28;20061;-48
2023/01/07 01:37:35;;;;;;;2.30;1.83;;;13.80;74.20;;;;;;5030819;28;20135;-48
2023/01/07 01:40:11;;;;;;;2.85;1.60;;;13.90;74.10;;;;;;5048881;28;20114;-48
2023/01/07 01:42:38;;;;;;;2.13;1.67;;;13.90;74.00;;;;;;5030415;28;20033;-50
2023/01/07 01:45:06;;;;;;;1.98;1.77;;;13.90;73.90;;;;;;5026667;28;20100;-48
2023/01/07 01:47:41;;;;;;;2.03;1.73;;;13.90;73.80;;;;;;5021841;28;20152;-50
2023/01/07 01:50:21;;;;;;;1.55;1.45;;;14.00;73.80;;;;;;5018230;28;20140;-50
2023/01/07 01:52:49;;;;;;;1.70;1.60;;;14.00;73.60;;;;;;5023875;28;20051;-48
2023/01/07 01:55:24;;;;;;;1.63;1.52;;;14.00;73.60;;;;;;5052177;28;20115;-48
2023/01/07 01:58:02;;;;;;;2.28;1.60;;;14.00;73.50;;;;;;5021314;28;20136;-49
2023/01/07 02:00:31;;;;;;;1.42;1.33;;;14.00;73.40;;;;;;5021973;28;20072;-49
2023/01/07 02:03:01;;;;;;;1.45;1.35;;;14.00;73.30;;;;;;5045749;28;20044;-49
2023/01/07 02:05:38;;;;;;;2.33;1.27;;;14.00;73.20;;;;;;5030557;28;20083;-48
2023/01/07 02:08:08;;;;;;;1.35;1.25;;;14.00;73.10;;;;;;5029293;28;20065;-48
2023/01/07 02:10:37;;;;;;;2.78;1.35;;;14.00;73.10;;;;;;5022206;28;20479;-48
2023/01/07 02:13:29;;;;;;;1.67;1.27;;;14.00;73.10;;;;;;5034114;28;20075;-49
2023/01/07 02:16:16;;;;;;;1.45;1.25;;;14.00;73.00;;;;;;5030693;28;20107;-50
2023/01/07 02:19:16;;;;;;;2.67;1.58;;;14.00;73.00;;;;;;5028417;28;20046;-48
2023/01/07 02:21:53;;;;;;;1.88;1.33;;;14.00;72.90;;;;;;5017682;28;20511;-50
2023/01/07 02:25:11;;;;;;;2.17;1.23;;;13.90;72.80;;;;;;5034556;28;20107;-49
2023/01/07 02:28:00;;;;;;;1.10;1.00;;;13.90;73.40;;;;;;5024393;28;20081;-49
2023/01/07 02:30:37;;;;;;;1.38;1.27;;;13.90;72.90;;;;;;5018268;28;20719;-49
2023/01/07 02:33:15;;;;;;;1.70;1.55;;;13.90;72.90;;;;;;5032239;28;20049;-48
2023/01/07 02:36:33;;;;;;;2.55;1.75;;;13.90;73.00;;;;;;5043430;28;20140;-47
2023/01/07 02:39:22;;;;;;;1.80;1.50;;;13.90;73.10;;;;;;4995022;28;20056;-48
2023/01/07 02:41:55;;;;;;;3.08;1.50;;;13.80;73.10;;;;;;5051228;28;20048;-48
2023/01/07 02:44:49;;;;;;;1.67;1.20;;;13.80;73.10;;;;;;5008373;28;20045;-47
2023/01/07 02:47:24;;;;;;;2.55;1.48;;;13.90;73.10;;;;;;5027822;28;20053;-49
2023/01/07 02:49:51;;;;;;;2.42;1.10;;;13.90;73.10;;;;;;5041770;28;20119;-48
2023/01/07 02:52:27;;;;;;;1.65;1.38;;;13.80;73.00;;;;;;5049935;28;20069;-49
2023/01/07 02:55:17;;;;;;;2.55;1.20;;;13.80;72.90;;;;;;5016248;28;20069;-48
2023/01/07 02:58:02;;;;;;;1.13;1.00;;;13.90;72.90;;;;;;5022203;28;20497;-48
2023/01/07 03:00:52;;;;;;;1.23;1.13;;;13.90;72.80;;;;;;5032818;28;20589;-50
2023/01/07 03:03:43;;;;;;;1.98;1.00;;;13.80;72.60;;;;;;5015845;28;20041;-48
2023/01/07 03:06:33;;;;;;;2.45;1.75;;;13.80;72.60;;;;;;5010522;28;20041;-50
2023/01/07 03:09:22;;;;;;;2.78;1.10;;;13.80;72.60;;;;;;5041559;28;20060;-48
2023/01/07 03:12:01;;;;;;;1.30;1.20;;;13.80;72.50;;;;;;5033435;28;20129;-49
2023/01/07 03:14:42;;;;;;;2.08;1.20;;;13.70;72.50;;;;;;5014319;28;20434;-48
2023/01/07 03:17:16;;;;;;;1.90;1.35;;;13.70;72.50;;;;;;5049303;28;20040;-48
2023/01/07 03:19:53;;;;;;;1.20;1.10;;;13.70;72.60;;;;;;5050421;28;20481;-48
2023/01/07 03:22:22;;;;;;;1.63;1.50;;;13.60;72.60;;;;;;5025678;28;20049;-52
2023/01/07 03:24:51;;;;;;;2.47;1.40;;;13.60;72.60;;;;;;5032916;28;20413;-48
2023/01/07 03:27:21;;;;;;;1.38;1.15;;;13.50;72.70;;;;;;5049845;28;20040;-49
2023/01/07 03:29:51;;;;;;;1.65;1.55;;;13.60;72.80;;;;;;5031636;28;20098;-49
2023/01/07 03:32:23;;;;;;;1.25;1.15;;;13.60;72.90;;;;;;5016863;28;20042;-49
2023/01/07 03:34:57;;;;;;;1.17;1.10;;;13.50;72.80;;;;;;5037874;28;20560;-49
2023/01/07 03:37:29;;;;;;;;;;;13.50;72.80;;;;;;5033509;28;20037;-48
2023/01/07 03:40:01;;;;;;;;;;;13.50;72.90;;;;;;5032568;28;20659;-49
2023/01/07 03:42:39;;;;;;;2.88;1.00;;;13.60;72.90;;;;;;5026492;28;20007;-49
2023/01/07 03:45:17;;;;;;;1.85;1.13;;;13.60;72.70;;;;;;5008150;28;20067;-50
2023/01/07 03:47:47;;;;;;;2.72;0.95;;;13.50;72.80;;;;;;5032264;28;20045;-48
2023/01/07 03:50:15;;;;;;;1.10;0.98;;;13.50;72.90;;;;;;5031545;28;20525;-48
2023/01/07 03:52:52;;;;;;;1.00;0.90;;;13.50;73.00;;;;;;5031582;28;20052;-49
2023/01/07 03:55:28;;;;;;;1.73;1.05;;;13.50;73.10;;;;;;5021558;28;20050;-49
2023/01/07 03:57:57;;;;;;;1.00;1.00;;;13.50;73.30;;;;;;5032228;28;20080;-48
2023/01/07 04:00:25;;;;;;;1.60;1.33;;;13.50;73.30;;;;;;5027384;28;20051;-49
2023/01/07 04:03:04;;;;;;;1.58;1.23;;;13.50;73.30;;;;;;5028522;28;20674;-51
2023/01/07 04:05:36;;;;;;;1.05;0.98;;;13.60;73.30;;;;;;5027246;28;20037;-48
2023/01/07 04:08:03;;;;;;;1.73;1.02;;;13.60;73.20;;;;;;5024047;28;20624;-49
2023/01/07 04:10:35;;;;;;;1.75;1.00;;;13.60;73.10;;;;;;5027853;28;20033;-49
2023/01/07 04:13:02;;;;;;;1.95;1.35;;;13.70;73.10;;;;;;5046505;28;20048;-49
2023/01/07 04:15:34;;;;;;;2.47;1.25;;;13.70;73.00;;;;;;5016178;28;20048;-48
2023/01/07 04:18:04;;;;;;;2.28;1.52;;;13.80;72.90;;;;;;4992305;28;20046;-49
2023/01/07 04:20:31;;;;;;;1.38;1.25;;;13.80;72.80;;;;;;5021604;28;20071;-48
2023/01/07 04:22:58;;;;;;;2.35;1.15;;;13.80;72.70;;;;;;5023444;28;20049;-48
2023/01/07 04:25:31;;;;;;;1.67;1.33;;;13.80;72.50;;;;;;5049124;28;20037;-50
2023/01/07 04:28:04;;;;;;;1.13;1.02;;;13.80;72.30;;;;;;5031771;28;20071;-48
2023/01/07 04:30:42;;;;;;;2.15;0.90;;;13.80;72.20;;;;;;5031262;28;20103;-49
2023/01/07 04:33:09;;;;;;;1.75;1.05;;;13.80;72.10;;;;;;5046903;28;20123;-49
2023/01/07 04:35:38;;;;;;;1.73;1.20;;;13.70;72.00;;;;;;5031521;28;20570;-48
2023/01/07 04:38:07;;;;;;;2.53;1.35;;;13.70;71.90;;;;;;5014088;28;20045;-48
2023/01/07 04:40:39;;;;;;;3.17;1.55;;;13.70;71.90;;;;;;5024288;28;20410;-50
2023/01/07 04:43:05;;;;;;;3.45;1.33;;;13.60;71.90;;;;;;5028300;28;20049;-49
2023/01/07 04:45:32;;;;;;;3.95;1.88;;;13.60;71.90;;;;;;5015970;28;20107;-48
2023/01/07 04:48:00;;;;;;;5.65;2.00;;;13.60;72.00;;;;;;5030294;28;20068;-49
2023/01/07 04:50:29;;;;;;;3.28;2.30;;;13.50;72.10;;;;;;5048833;28;20396;-47
2023/01/07 04:52:59;;;;;;;2.25;1.85;;;13.50;72.10;;;;;;5020636;28;20048;-48
2023/01/07 04:55:27;;;;;;;1.95;1.77;;;13.60;72.30;;;;;;5010926;28;20072;-48
2023/01/07 04:57:58;;;;;;;4.75;2.22;;;13.50;72.30;;;;;;5024147;28;20088;-48
2023/01/07 05:00:27;;;;;;;2.20;1.60;;;13.60;72.40;;;;;;5022601;28;20055;-48
2023/01/07 05:02:56;;;;;;;4.53;1.85;;;13.50;72.40;;;;;;5023089;28;20111;-49
2023/01/07 05:05:23;;;;;;;1.60;1.50;;;13.50;72.40;;;;;;5005231;28;20042;-49
2023/01/07 05:07:54;;;;;;;1.95;1.70;;;13.50;72.30;;;;;;5019974;28;20041;-48
2023/01/07 05:10:22;;;;;;;2.28;1.70;;;13.60;72.40;;;;;;5029780;28;20049;-48
2023/01/07 05:12:51;;;;;;;3.53;2.22;;;13.60;72.30;;;;;;5031417;28;20069;-48
2023/01/07 05:15:24;;;;;;;2.25;1.40;;;13.60;72.20;;;;;;5010133;28;20046;-49
2023/01/07 05:17:57;;;;;;;1.38;1.27;;;13.60;72.10;;;;;;5012373;28;20124;-49
2023/01/07 05:20:24;;;;;;;2.17;1.65;;;13.60;71.90;;;;;;5033804;28;20041;-49
2023/01/07 05:22:51;;;;;;;1.48;1.38;;;13.60;71.80;;;;;;5035103;28;20041;-50
2023/01/07 05:25:18;;;;;;;2.70;1.73;;;13.70;71.80;;;;;;5025197;28;20091;-49
2023/01/07 05:27:45;;;;;;;2.92;1.70;;;13.70;71.50;;;;;;5024936;28;20044;-48
2023/01/07 05:30:16;;;;;;;3.95;1.85;;;13.70;71.40;;;;;;5034592;28;20041;-49
2023/01/07 05:32:44;;;;;;;3.42;2.35;;;13.70;71.10;;;;;;5034960;28;20044;-48
2023/01/07 05:35:13;;;;;;;4.20;2.60;;;13.70;71.10;;;;;;5018546;28;20077;-49
2023/01/07 05:37:49;;;;;;;;;;;13.70;70.90;;;;;;5044726;28;20037;-48
2023/01/07 05:40:17;;;;;;;4.55;2.78;;;13.70;70.80;;;;;;5033894;28;19960;-48
2023/01/07 05:42:45;;;;;;;2.63;2.13;;;13.70;70.70;;;;;;5034677;28;20098;-48
2023/01/07 05:45:15;;;;;;;2.72;2.13;;;13.70;70.40;;;;;;5024111;28;20524;-49
2023/01/07 05:47:44;;;;;;;3.25;1.60;;;13.70;70.30;;;;;;5051170;28;20048;-48
2023/01/07 05:50:14;;;;;;;1.83;1.38;;;13.70;70.20;;;;;;5051458;28;20459;-50
2023/01/07 05:52:40;;;;;;;2.45;1.60;;;13.70;70.20;;;;;;5042863;28;20059;-48
2023/01/07 05:55:09;;;;;;;2.17;1.58;;;13.70;70.10;;;;;;5032139;28;20477;-48
2023/01/07 05:57:38;;;;;;;1.98;1.25;;;13.70;69.90;;;;;;5051915;28;20079;-49
2023/01/07 06:00:09;;;;;;;1.55;1.05;;;13.70;69.70;;;;;;5051539;28;20037;-50
2023/01/07 06:02:41;;;;;;;2.92;1.40;;;13.70;69.50;;;;;;5023018;28;20049;-48
2023/01/07 06:05:10;;;;;;;2.42;1.42;;;13.70;69.30;;;;;;5030391;28;20041;-49
2023/01/07 06:07:37;;;;;;;2.67;1.88;;;13.70;69.20;;;;;;5033735;28;20152;-49
2023/01/07 06:10:04;;;;;;;3.03;1.45;;;13.60;69.00;;;;;;5047449;28;20492;-48
2023/01/07 06:12:36;;;;;;;2.40;1.50;;;13.60;68.90;;;;;;5037748;28;20042;-47
2023/01/07 06:15:05;;;;;;;3.25;1.83;;;13.60;68.90;;;;;;5040918;28;20048;-49
2023/01/07 06:17:33;;;;;;;1.83;1.20;;;13.50;68.80;;;;;;5051945;28;20045;-48
2023/01/07 06:19:59;;;;;;;1.52;1.42;;;13.50;68.70;;;;;;5041173;28;20045;-50
2023/01/07 06:22:29;;;;;;;2.30;0.90;;;13.40;68.60;;;;;;5034749;28;20050;-50
2023/01/07 06:24:55;;;;;;;1.88;1.00;;;13.40;68.60;;;;;;5051072;28;20043;-49
2023/01/07 06:27:39;;;;;;;1.08;0.70;;;13.30;68.60;;;;;;5036194;28;20076;-49
2023/01/07 06:30:12;;;;;;;0.45;0.43;;;13.40;68.80;;;;;;5034486;28;20045;-51
2023/01/07 06:32:41;;;;;;;0.80;0.80;;;13.30;68.80;;;;;;5028538;28;20292;-49
2023/01/07 06:35:11;;;;;;;0.90;0.50;;;13.30;68.90;;;;;;5047754;28;20370;-50
2023/01/07 06:37:37;;;;;;;3.53;0.70;;;13.20;68.90;;;;;;5036241;28;20037;-50
2023/01/07 06:40:08;;;;;;;0.57;0.50;;;13.20;68.90;;;;;;5035294;28;20066;-49
2023/01/07 06:42:34;;;;;;;0.68;0.68;;;13.10;68.90;;;;;;5046882;28;20132;-48
2023/01/07 06:45:02;;;;;;;0.65;0.60;;;13.10;69.00;;;;;;5036963;28;20037;-49
2023/01/07 06:47:31;;;;;;;0.80;0.80;;;13.10;69.30;;;;;;5047941;28;20041;-48
2023/01/07 06:50:02;;;;;;;0.40;0.40;;;13.10;69.30;;;;;;5035057;28;20052;-48
2023/01/07 06:52:29;;;;;;;0.57;0.52;;;13.10;69.40;;;;;;5047877;28;20107;-48
2023/01/07 06:54:58;;;;;;;1.48;0.52;;;13.10;69.40;;;;;;5050968;28;20071;-48
2023/01/07 06:57:24;;;;;;;0.40;0.40;;;13.10;69.60;;;;;;5043821;28;20059;-51
2023/01/07 06:59:51;;;;;;;2.28;1.02;;;13.10;69.60;;;;;;5037251;28;20123;-49
2023/01/07 07:02:21;;;;;;;0.98;0.70;;;13.20;69.50;;;;;;5050439;28;20047;-48
2023/01/07 07:04:53;;;;;;;;;;;13.20;69.40;;;;;;5047983;28;20591;-47
2023/01/07 07:07:20;;;;;;;0.55;0.55;;;13.20;69.40;;;;;;5028526;28;20284;-47
2023/01/07 07:09:53;;;;;;;3.03;0.47;;;13.20;69.30;;;;;;5023388;28;20049;-49
2023/01/07 07:12:22;;;;;;;0.90;0.50;;;13.30;69.30;;;;;;5048866;28;20120;-49
2023/01/07 07:14:52;;;;;;;2.20;0.88;;;13.30;69.20;;;;;;5043844;28;20409;-47
2023/01/07 07:17:22;;;;;;;1.17;0.93;;;13.30;69.10;;;;;;5033209;28;20116;-53
2023/01/07 07:19:49;;;;;;;3.20;0.63;;;13.30;69.00;;;;;;5040651;28;20069;-51
2023/01/07 07:22:17;;;;;;;1.10;0.88;;;13.30;68.90;;;;;;5049355;28;20041;-49
2023/01/07 07:24:49;;;;;;;1.17;0.65;;;13.30;68.90;;;;;;5033110;28;20115;-49
2023/01/07 07:27:16;;;;;;;1.08;0.80;;;13.30;68.80;;;;;;5027699;28;20076;-49
2023/01/07 07:29:46;;;;;;;0.70;0.70;;;13.40;68.80;;;;;;5026783;28;20091;-49
2023/01/07 07:32:13;;;;;;;1.27;0.75;;;13.40;68.60;;;;;;5049518;28;20501;-48
2023/01/07 07:34:42;;;;;;;1.42;0.90;;;13.40;68.40;;;;;;5032635;28;20072;-50
2023/01/07 07:37:11;;;;;;;0.90;0.85;;;13.40;68.30;;;;;;5032282;28;20052;-50
2023/01/07 07:39:40;;;;;;;2.67;1.08;;;13.40;68.30;;;;;;5033103;28;20106;-48
2023/01/07 07:42:09;;;;;;;1.15;0.70;;;13.50;68.30;;;;;;5049553;28;20478;-49
2023/01/07 07:44:38;;;;;;;0.63;0.50;;;13.50;68.20;;;;;;5023050;28;20115;-53
2023/01/07 07:47:04;;;;;;;1.55;0.95;;;13.50;68.20;;;;;;5019883;28;20577;-49
2023/01/07 07:49:33;;;;;;;1.02;0.82;;;13.50;68.20;;;;;;5040621;28;20067;-49
2023/01/07 07:52:06;;;;;;;2.15;0.95;;;13.50;68.00;;;;;;5049232;28;20531;-52
2023/01/07 07:54:35;;;;;;;1.65;0.88;;;13.50;68.00;;;;;;5033312;28;20088;-48
2023/01/07 07:57:06;;;;;;;2.10;0.90;;;13.50;68.10;;;;;;5037633;28;20095;-48
2023/01/07 07:59:33;;;;;;;1.27;0.60;;;13.50;68.00;;;;;;5048891;28;20815;-48
2023/01/07 08:02:00;;;;;;;0.90;0.90;;;13.60;68.00;;;;;;5043407;28;20083;-49
2023/01/07 08:04:27;;;;;;;0.93;0.70;;;13.60;68.10;;;;;;5011935;28;20758;-48
2023/01/07 08:06:54;;;;;;;0.70;0.70;;;13.60;68.00;;;;;;5022773;28;20079;-49
2023/01/07 08:09:21;;;;;;;1.80;0.80;;;13.60;68.00;;;;;;5029655;28;20040;-51
2023/01/07 08:11:49;;;;;;;1.17;0.75;;;13.60;68.00;;;;;;5027658;28;20056;-48
2023/01/07 08:14:18;;;;;;;1.27;0.80;;;13.60;67.80;;;;;;5026864;28;20049;-49
2023/01/07 08:16:44;;;;;;;1.13;0.88;;;13.60;67.80;;;;;;5028527;28;20275;-48
2023/01/07 08:19:14;;;;;;;0.93;0.82;;;13.70;68.00;;;;;;5028350;28;20046;-52
2023/01/07 08:21:40;;;;;;;1.08;0.90;;;13.60;68.00;;;;;;5048042;28;20047;-51
2023/01/07 08:24:07;;;;;;;3.80;1.02;;;13.70;68.00;;;;;;5029196;28;20045;-51
2023/01/07 08:26:34;;;;;;;1.33;0.95;;;13.70;67.80;;;;;;5038641;28;20052;-53
2023/01/07 08:29:01;;;;;;;1.00;0.95;;;13.70;67.80;;;;;;5049611;28;20115;-48
2023/01/07 08:31:28;;;;;;;1.02;0.63;;;13.70;67.80;;;;;;5039909;28;20045;-51
2023/01/07 08:33:54;;;;;;;1.73;0.70;;;13.70;67.80;;;;;;5034792;28;20052;-49
2023/01/07 08:36:21;;;;;;;1.65;1.00;;;13.70;67.60;;;;;;5046553;28;20047;-52
2023/01/07 08:38:51;;;;;;;0.55;0.55;;;13.70;67.50;;;;;;5048318;28;20052;-52
2023/01/07 08:41:19;;;;;;;0.85;0.82;;;13.70;67.50;;;;;;5040683;28;20577;-50
2023/01/07 08:43:46;;;;;;;2.53;0.90;;;13.80;67.60;;;;;;5024625;28;20040;-51
2023/01/07 08:46:12;;;;;;;1.90;0.70;;;13.80;67.50;;;;;;5026833;28;20037;-53
2023/01/07 08:48:39;;;;;;;1.30;1.17;;;13.70;67.30;;;;;;5041738;28;20428;-51
2023/01/07 08:51:06;;;;;;;2.55;1.13;;;13.80;67.30;;;;;;5040312;28;20037;-48
2023/01/07 08:53:33;;;;;;;0.70;0.70;;;13.80;67.20;;;;;;5035070;28;20401;-51
2023/01/07 08:56:00;;;;;;;1.63;1.02;;;13.80;67.20;;;;;;5048326;28;20047;-52
2023/01/07 08:58:27;;;;;;;0.93;0.93;;;13.80;67.30;;;;;;5052787;28;20037;-53
2023/01/07 09:00:53;;;;;;;1.15;1.02;;;13.90;67.20;;;;;;5035459;28;20041;-49
2023/01/07 09:03:20;;;;;;;1.23;0.98;;;13.90;67.00;;;;;;5038978;28;20497;-51
2023/01/07 09:05:47;;;;;;;0.57;0.57;;;13.90;67.00;;;;;;5045328;28;20111;-50
2023/01/07 09:08:13;;;;;;;2.15;0.82;;;13.90;67.00;;;;;;5049651;28;20037;-50
2023/01/07 09:10:43;;;;;;;0.70;0.70;;;14.00;66.90;;;;;;5018383;28;20722;-52
2023/01/07 09:13:09;;;;;;;0.77;0.75;;;14.00;66.70;;;;;;5047775;28;20060;-52
2023/01/07 09:15:36;;;;;;;0.60;0.60;;;14.10;66.70;;;;;;5048173;28;20511;-49
2023/01/07 09:18:03;;;;;;;0.65;0.65;;;14.10;66.60;;;;;;5026154;28;20125;-51
2023/01/07 09:20:30;;;;;;;0.75;0.70;;;14.10;66.50;;;;;;5031800;28;20033;-51
2023/01/07 09:22:56;;;;;;;0.88;0.75;;;14.20;66.50;;;;;;5037840;28;20037;-53
2023/01/07 09:25:23;;;;;;;1.30;0.80;;;14.20;66.30;;;;;;5035597;28;20033;-52
2023/01/07 09:27:50;;;;;;;1.00;0.63;;;14.20;66.20;;;;;;5036304;28;20029;-52
2023/01/07 09:30:17;;;;;;;1.15;0.60;;;14.20;66.10;;;;;;5030577;28;20030;-49
2023/01/07 09:32:43;;;;;;;0.70;0.70;;;14.30;66.40;;;;;;5034416;28;20075;-52
2023/01/07 09:35:11;;;;;;;1.65;0.63;;;14.30;66.50;;;;;;5035431;28;20041;-53
2023/01/07 09:37:37;;;;;;;1.60;0.90;;;14.40;66.70;;;;;;5035059;28;20038;-50
2023/01/07 09:40:05;;;;;;;1.05;0.82;;;14.40;66.80;;;;;;5032571;28;20044;-51
2023/01/07 09:42:51;;;;;;;1.52;1.33;;;14.40;66.80;;;;;;5042028;28;20051;-51
2023/01/07 09:45:22;;;;;;;2.03;0.65;;;14.50;66.80;;;;;;5031210;28;20494;-49
2023/01/07 09:47:53;;;;;;;1.58;0.98;;;14.50;66.40;;;;;;5038757;28;20033;-51
2023/01/07 09:50:46;;;;;;;2.00;0.95;;;14.60;66.20;;;;;;5048912;28;20035;-50
2023/01/07 09:53:18;;;;;;;1.55;1.33;;;14.60;65.30;;;;;;5029925;28;20044;-52
2023/01/07 09:55:48;;;;;;;4.15;1.50;;;14.70;65.50;;;;;;5038022;28;20094;-50
2023/01/07 09:58:35;;;;;;;1.90;1.55;;;14.70;65.00;;;;;;5038185;28;20049;-50
2023/01/07 10:01:33;;;;;;;1.60;1.30;;;14.70;64.80;;;;;;5045811;28;20047;-52
2023/01/07 10:04:41;;;;;;;1.33;1.20;;;14.70;63.80;;;;;;5039941;28;20072;-49
2023/01/07 10:07:33;;;;;;;2.95;1.48;;;14.70;63.50;;;;;;5028445;28;20037;-49
2023/01/07 10:10:29;;;;;;;1.05;0.95;;;14.70;63.70;;;;;;5037395;28;20067;-48
2023/01/07 10:13:36;;;;;;;1.38;0.80;;;14.70;63.80;;;;;;5033512;28;20567;-49
2023/01/07 10:16:35;;;;;;;0.98;0.90;;;14.60;64.00;;;;;;5028151;28;20137;-50
2023/01/07 10:19:19;;;;;;;1.05;0.93;;;14.60;64.30;;;;;;5017262;28;20045;-50
2023/01/07 10:22:22;;;;;;;0.95;0.63;;;14.50;64.30;;;;;;5042138;28;20044;-51
2023/01/07 10:24:59;;;;;;;0.98;0.90;;;14.50;64.30;;;;;;5004791;28;20050;-52
2023/01/07 10:27:31;;;;;;;1.35;0.70;;;14.40;64.60;;;;;;5044966;28;20458;-53
2023/01/07 10:30:05;;;;;;;0.77;0.77;;;14.40;64.60;;;;;;5051853;28;20033;-52
2023/01/07 10:32:35;;;;;;;1.55;1.10;;;14.40;64.60;;;;;;5051108;28;20047;-50
2023/01/07 10:35:03;;;;;;;1.15;0.80;;;14.30;64.70;;;;;;5027191;28;20053;-52
2023/01/07 10:37:34;;;;;;;0.73;0.73;;;14.30;64.90;;;;;;5045585;28;20116;-51
2023/01/07 10:40:31;;;;;;;1.98;0.95;;;14.30;64.90;;;;;;5052407;28;20041;-52
2023/01/07 10:43:22;;;;;;;1.60;1.20;;;14.20;64.40;;;;;;5043536;28;20045;-52
2023/01/07 10:46:01;;;;;;;0.85;0.80;;;14.30;64.60;;;;;;5031397;28;20654;-50
2023/01/07 10:48:39;;;;;;;1.45;1.00;;;14.20;64.70;;;;;;5038327;28;20067;-49
2023/01/07 10:51:09;;;;;;;1.35;0.98;;;14.20;64.80;;;;;;5042846;28;20049;-53
2023/01/07 10:53:52;;;;;;;1.23;0.90;;;14.20;65.10;;;;;;5034213;28;20037;-53
2023/01/07 10:56:28;;;;;;;0.73;0.73;;;14.20;64.60;;;;;;5036294;28;20045;-51
2023/01/07 10:58:55;;;;;;;1.10;0.88;;;14.20;64.60;;;;;;5045480;28;20127;-48
2023/01/07 11:01:28;;;;;;;2.22;1.00;;;14.20;64.50;;;;;;5034970;28;20067;-53
2023/01/07 11:04:00;;;;;;;0.60;0.60;;;14.20;64.20;;;;;;5017744;28;20150;-51
2023/01/07 11:06:55;;;;;;;1.05;0.70;;;14.20;63.90;;;;;;5033095;28;20040;-51
2023/01/07 11:09:29;;;;;;;1.40;0.50;;;14.30;62.40;;;;;;5039044;28;20049;-53
2023/01/07 11:12:01;;;;;;;1.20;0.70;;;14.30;62.60;;;;;;5027266;28;20502;-50
2023/01/07 11:14:36;;;;;;;0.80;0.60;;;14.40;62.60;;;;;;5028256;28;20048;-53
2023/01/07 11:17:13;;;;;;;0.93;0.87;;;14.40;62.50;;;;;;5032694;28;20063;-50
2023/01/07 11:19:48;;;;;;;1.35;0.88;;;14.40;61.70;;;;;;5048248;28;20454;-51
2023/01/07 11:22:24;;;;;;;1.08;0.50;;;14.50;61.10;;;;;;5031346;28;20045;-50
2023/01/07 11:24:58;;;;;;;0.80;0.80;;;14.50;60.60;;;;;;5035286;28;20524;-51
2023/01/07 11:27:33;;;;;;;0.73;0.70;;;14.60;61.40;;;;;;5050781;28;20127;-51
2023/01/07 11:30:26;;;;;;;1.23;0.70;;;14.60;61.10;;;;;;5036739;28;20058;-53
2023/01/07 11:33:03;;;;;;;1.15;0.60;;;14.70;59.90;;;;;;5039023;28;20115;-52
2023/01/07 11:35:29;;;;;;;0.65;0.57;;;14.70;61.10;;;;;;5050487;28;20037;-51
2023/01/07 11:37:57;;;;;;;1.23;0.60;;;14.70;60.60;;;;;;5049823;28;20127;-49
2023/01/07 11:40:31;;;;;;;1.08;0.63;;;14.80;60.40;;;;;;5045989;28;20042;-51
2023/01/07 11:43:19;;;;;;;0.88;0.45;;;14.80;59.60;;;;;;5032097;28;20040;-53
2023/01/07 11:45:57;;;;;;;0.68;0.68;;;14.80;60.00;;;;;;5049996;28;20102;-51
2023/01/07 11:48:59;;;;;;;0.60;0.60;;;14.90;60.10;;;;;;5050748;28;20037;-51
2023/01/07 11:51:39;;;;;;;0.77;0.57;;;14.90;59.30;;;;;;5033014;28;20044;-51
2023/01/07 11:54:24;;;;;;;1.17;0.50;;;15.00;59.30;;;;;;5038129;28;20501;-53
2023/01/07 11:57:08;;;;;;;3.22;0.85;;;15.00;59.20;;;;;;5049420;28;20041;-49
2023/01/07 11:59:38;;;;;;;0.80;0.80;;;15.00;59.70;;;;;;5033485;28;20041;-51
2023/01/07 12:02:24;;;;;;;0.55;0.55;;;15.10;59.70;;;;;;5028852;28;20468;-49
2023/01/07 12:05:15;;;;;;;1.45;0.70;;;15.00;58.60;;;;;;5042148;28;20041;-48
2023/01/07 12:07:49;;;;;;;0.73;0.73;;;15.10;58.50;;;;;;5037485;28;20033;-50
2023/01/07 12:10:35;;;;;;;0.77;0.77;;;15.10;59.00;;;;;;5030636;28;20592;-50
2023/01/07 12:13:20;;;;;;;1.05;0.80;;;15.10;58.60;;;;;;5035251;28;20032;-49
2023/01/07 12:15:57;;;;;;;0.98;0.73;;;15.10;58.50;;;;;;5033762;28;20068;-51
2023/01/07 12:18:35;;;;;;;1.42;1.10;;;15.20;58.60;;;;;;5040517;28;20047;-53
2023/01/07 12:21:17;;;;;;;1.00;1.00;;;15.20;58.40;;;;;;5025881;28;20042;-51
2023/01/07 12:24:15;;;;;;;1.27;1.10;;;15.20;58.90;;;;;;5031986;28;20198;-50
2023/01/07 12:27:05;;;;;;;1.77;1.33;;;15.20;58.10;;;;;;5026288;28;20139;-52
2023/01/07 12:30:18;;;;;;;0.93;0.93;;;15.30;58.20;;;;;;5036064;28;20040;-52
2023/01/07 12:32:48;;;;;;;1.05;0.90;;;15.30;58.30;;;;;;5031529;28;20041;-50
2023/01/07 12:35:19;;;;;;;1.08;0.88;;;15.30;58.90;;;;;;5034621;28;20057;-49
2023/01/07 12:37:56;;;;;;;1.20;1.10;;;15.30;58.50;;;;;;5029038;28;20049;-49
2023/01/07 12:40:50;;;;;;;1.42;1.33;;;15.30;58.40;;;;;;5031675;28;20045;-51
2023/01/07 12:43:26;;;;;;;1.80;1.70;;;15.30;57.60;;;;;;5033787;28;20045;-51
2023/01/07 12:45:58;;;;;;;2.30;1.52;;;15.30;57.90;;;;;;5033582;28;20045;-51
2023/01/07 12:48:55;;;;;;;1.48;1.38;;;15.30;58.30;;;;;;5033974;28;20494;-52
2023/01/07 12:51:29;;;;;;;1.55;1.45;;;15.30;57.70;;;;;;5032277;28;20121;-51
2023/01/07 12:54:04;;;;;;;2.85;1.40;;;15.30;58.20;;;;;;5035883;28;20563;-50
2023/01/07 12:56:39;;;;;;;1.98;1.88;;;15.30;58.10;;;;;;5027658;28;20549;-50
2023/01/07 12:59:26;;;;;;;1.73;1.63;;;15.30;58.00;;;;;;5029356;28;20116;-52
2023/01/07 13:02:24;;;;;;;1.92;1.60;;;15.30;57.70;;;;;;5017645;28;20177;-51
2023/01/07 13:05:14;;;;;;;2.75;2.03;;;15.20;57.80;;;;;;5032068;28;20448;-52
2023/01/07 13:07:46;;;;;;;1.73;1.63;;;15.20;58.00;;;;;;5031307;28;20116;-49
2023/01/07 13:10:46;;;;;;;2.03;1.92;;;15.20;58.80;;;;;;5043538;28;20091;-49
2023/01/07 13:13:24;;;;;;;1.60;1.50;;;15.20;58.10;;;;;;5033404;28;20595;-53
2023/01/07 13:15:51;;;;;;;2.22;2.00;;;15.20;58.00;;;;;;5027102;28;20072;-51
2023/01/07 13:18:20;;;;;;;1.73;1.63;;;15.20;58.60;;;;;;5044866;28;20413;-52
2023/01/07 13:20:58;;;;;;;2.25;1.35;;;15.20;58.60;;;;;;5041973;28;20049;-52
2023/01/07 13:23:53;;;;;;;2.30;1.83;;;15.30;57.80;;;;;;5039644;28;20037;-52